Oneida Castle, New York
Current Conditions -  °F | °C
As of 8:53 PM on Friday 26 Dec 2014 (Local Time) from KRME Reporting Station
Clear Clear  
Wind Chill: 27°   Ceiling: Unl
Heat Index: 27°   Visibility: 8mi
Dew Point: 25°   Wind: 0mph
Humidity: 92%   Direction: NA
Pressure: 30.19"   Gusts: NA
Location:  43.0606°N, 75.6518°W
Report Text: KRME 270153Z 00000KT 8SM CLR M03/M04 A3019 RMK AO2 SLP226 T10281039
Loading
Personal Weather Stations






























Interactive Weather Map New forecast layout! Learn more

10-Day Weather Forecast

Advertisements
Track Severe Weather on mobile